Time;durP1;ratioP1;P1;durP2;ratioP2;P2;SDS_P1;SDS_P2;PMS_P1;PMS_P2;Temp;Humidity;BMP_temperature;BMP_pressure;BME280_temperature;BME280_humidity;BME280_pressure;Samples;Min_cycle;Max_cycle;Signal;HPM_P1;HPM_P2
2022/11/11 00:00:01;;;;;;;10.23;3.42;;;12.40;99.90;;;;;;4254051;28;20043;-87
2022/11/11 00:02:02;;;;;;;10.95;3.83;;;12.30;99.90;;;;;;4234501;28;20044;-86
2022/11/11 00:04:02;;;;;;;10.88;4.00;;;12.30;99.90;;;;;;4242703;28;20076;-87
2022/11/11 00:06:05;;;;;;;9.50;4.07;;;12.30;99.90;;;;;;4239019;28;20122;-86
2022/11/11 00:08:06;;;;;;;14.40;4.63;;;12.30;99.90;;;;;;4228828;28;20062;-86
2022/11/11 00:10:07;;;;;;;9.57;4.38;;;12.30;99.90;;;;;;4252275;28;20090;-86
2022/11/11 00:12:08;;;;;;;12.20;4.15;;;12.40;99.90;;;;;;4251068;27;20088;-86
2022/11/11 00:14:09;;;;;;;10.27;4.65;;;12.30;99.90;;;;;;4256553;27;20141;-85
2022/11/11 00:16:14;;;;;;;10.02;4.20;;;12.20;99.90;;;;;;4262898;27;20051;-85
2022/11/11 00:25:16;;;;;;;14.45;5.00;;;12.10;99.90;;;;;;4260362;27;20494;-86
2022/11/11 00:27:16;;;;;;;16.58;4.53;;;12.10;99.90;;;;;;4258224;27;20039;-86
2022/11/11 00:29:19;;;;;;;12.73;4.97;;;12.00;99.90;;;;;;4254378;27;20046;-86
2022/11/11 00:31:20;;;;;;;14.25;5.22;;;12.00;99.90;;;;;;4234740;28;20526;-88
2022/11/11 00:33:21;;;;;;;14.88;4.43;;;12.10;99.90;;;;;;4234529;28;20047;-87
2022/11/11 00:38:05;;;;;;;9.93;4.93;;;12.00;99.90;;;;;;4196369;28;20062;-87
2022/11/11 00:40:06;;;;;;;12.68;4.97;;;12.00;99.90;;;;;;4233014;28;20044;-86
2022/11/11 00:42:07;;;;;;;11.27;4.57;;;12.00;99.90;;;;;;4235042;28;20084;-86
2022/11/11 00:44:09;;;;;;;21.05;6.72;;;12.30;99.90;;;;;;4234186;28;20044;-86
2022/11/11 00:50:59;;;;;;;9.85;4.50;;;12.00;99.90;;;;;;4239805;28;20043;-89
2022/11/11 00:53:02;;;;;;;10.95;4.50;;;12.00;99.90;;;;;;4220088;28;20077;-85
2022/11/11 00:55:04;;;;;;;13.18;4.65;;;12.00;99.90;;;;;;4240339;28;20031;-86
2022/11/11 00:57:04;;;;;;;10.30;4.25;;;12.00;99.90;;;;;;4211890;28;20106;-86
2022/11/11 00:59:07;;;;;;;12.27;4.63;;;12.00;99.90;;;;;;4225333;28;20044;-86
2022/11/11 01:01:07;;;;;;;16.85;5.15;;;12.00;99.90;;;;;;4232502;28;20105;-86
2022/11/11 01:03:08;;;;;;;12.95;5.20;;;12.00;99.90;;;;;;4247178;28;20052;-86
2022/11/11 01:05:11;;;;;;;11.57;4.82;;;12.00;99.90;;;;;;4256673;27;20091;-86
2022/11/11 01:07:12;;;;;;;13.18;5.28;;;12.10;99.90;;;;;;4234602;28;20067;-84
2022/11/11 01:09:12;;;;;;;7.78;4.18;;;12.00;99.90;;;;;;4234722;28;20094;-85
2022/11/11 01:11:15;;;;;;;12.95;4.35;;;12.10;99.90;;;;;;4248034;27;20043;-86
2022/11/11 01:13:25;;;;;;;16.95;6.07;;;12.10;99.90;;;;;;4236502;28;20051;-87
2022/11/11 01:15:26;;;;;;;14.77;5.85;;;12.10;99.90;;;;;;4253801;27;20091;-86
2022/11/11 01:17:28;;;;;;;14.65;4.28;;;12.10;99.90;;;;;;4254522;27;20584;-86
2022/11/11 01:19:29;;;;;;;16.00;5.57;;;12.10;99.90;;;;;;4236650;28;20407;-86
2022/11/11 01:21:29;;;;;;;15.55;5.60;;;12.10;99.90;;;;;;4237967;28;20052;-86
2022/11/11 01:23:33;;;;;;;11.35;5.10;;;12.10;99.90;;;;;;4240744;28;20108;-86
2022/11/11 01:25:35;;;;;;;15.05;4.47;;;12.10;99.90;;;;;;4236902;28;20803;-86
2022/11/11 01:27:36;;;;;;;14.30;4.88;;;12.10;99.90;;;;;;4228959;28;20044;-87
2022/11/11 01:29:37;;;;;;;10.20;4.70;;;12.10;99.90;;;;;;4225099;28;20047;-88
2022/11/11 01:31:37;;;;;;;13.02;4.80;;;12.10;99.90;;;;;;4230585;28;20076;-87
2022/11/11 01:33:39;;;;;;;11.48;5.28;;;12.10;99.90;;;;;;4219225;28;20404;-86
2022/11/11 01:35:41;;;;;;;16.88;5.35;;;12.10;99.90;;;;;;4252366;27;20403;-86
2022/11/11 01:37:41;;;;;;;15.77;5.25;;;12.10;99.90;;;;;;4251472;27;20087;-87
2022/11/11 01:39:42;;;;;;;12.13;4.40;;;12.00;99.90;;;;;;4235531;28;20130;-86
2022/11/11 01:41:43;;;;;;;10.93;4.90;;;12.00;99.90;;;;;;4234671;28;20055;-87
2022/11/11 01:43:43;;;;;;;15.07;4.90;;;12.00;99.90;;;;;;4232814;28;20047;-85
2022/11/11 01:45:44;;;;;;;15.05;5.30;;;12.00;99.90;;;;;;4250873;27;20090;-87
2022/11/11 01:50:04;;;;;;;12.63;5.00;;;12.00;99.90;;;;;;4231981;28;20047;-87
2022/11/11 01:52:05;;;;;;;13.43;5.28;;;12.00;99.90;;;;;;4250366;27;20452;-87
2022/11/11 01:54:14;;;;;;;10.88;5.05;;;12.00;99.90;;;;;;4231612;28;20048;-86
2022/11/11 01:56:15;;;;;;;11.52;4.88;;;12.00;99.90;;;;;;4231084;28;20053;-87
2022/11/11 01:58:18;;;;;;;14.25;4.95;;;12.00;99.90;;;;;;4231812;28;20052;-87
2022/11/11 02:00:20;;;;;;;13.45;4.97;;;12.00;99.90;;;;;;4232720;28;20073;-86
2022/11/11 02:03:06;;;;;;;15.25;5.90;;;12.00;99.90;;;;;;4249859;27;20091;-86
2022/11/11 02:07:30;;;;;;;14.50;5.55;;;12.00;99.90;;;;;;4248926;27;20118;-86
2022/11/11 02:09:31;;;;;;;9.65;4.88;;;12.00;99.90;;;;;;4213934;28;20055;-85
2022/11/11 02:16:13;;;;;;;;;;;12.00;99.90;;;;;;4231278;28;20051;-86
2022/11/11 02:18:14;;;;;;;28.45;5.93;;;12.00;99.90;;;;;;4249635;27;20422;-86
2022/11/11 02:20:19;;;;;;;10.20;4.57;;;12.00;99.90;;;;;;4217059;28;20103;-86
2022/11/11 02:22:37;;;;;;;13.68;5.07;;;12.00;99.90;;;;;;4230915;28;20059;-86
2022/11/11 02:24:40;;;;;;;15.85;5.72;;;12.00;99.90;;;;;;4230571;28;20105;-86
2022/11/11 02:26:43;;;;;;;13.98;4.82;;;12.00;99.90;;;;;;4248826;27;20054;-86
2022/11/11 02:28:44;;;;;;;11.85;5.28;;;12.00;99.90;;;;;;4249682;27;20051;-86
2022/11/11 02:30:46;;;;;;;16.35;6.10;;;12.00;99.90;;;;;;4249513;27;20031;-87
2022/11/11 02:32:49;;;;;;;11.73;4.88;;;12.00;99.90;;;;;;4249454;27;20093;-86
2022/11/11 02:34:50;;;;;;;18.17;5.95;;;12.00;99.90;;;;;;4230548;28;20075;-86
2022/11/11 02:36:51;;;;;;;11.88;4.82;;;11.90;99.90;;;;;;4248817;27;20099;-87
2022/11/11 02:38:52;;;;;;;14.60;5.88;;;12.00;99.90;;;;;;4244799;27;20051;-87
2022/11/11 02:43:13;;;;;;;16.00;5.57;;;12.00;99.90;;;;;;4249006;27;20044;-87
2022/11/11 02:45:13;;;;;;;13.73;5.63;;;11.90;99.90;;;;;;4248242;27;20092;-85
2022/11/11 02:47:15;;;;;;;12.00;5.95;;;11.90;99.90;;;;;;4213704;28;20516;-86
2022/11/11 02:49:16;;;;;;;16.05;5.63;;;11.90;99.90;;;;;;4219170;28;20100;-86
2022/11/11 02:51:16;;;;;;;17.60;5.80;;;11.90;99.90;;;;;;4249057;27;20035;-85
2022/11/11 02:53:18;;;;;;;16.02;6.47;;;11.90;99.90;;;;;;4230553;28;20098;-86
2022/11/11 02:55:20;;;;;;;17.27;6.00;;;11.90;99.90;;;;;;4246605;27;20066;-86
2022/11/11 02:57:21;;;;;;;17.38;5.80;;;11.90;99.90;;;;;;4230672;28;20479;-86
2022/11/11 02:59:23;;;;;;;15.45;6.28;;;11.90;99.90;;;;;;4213797;28;20048;-86
2022/11/11 03:01:23;;;;;;;14.05;6.20;;;11.90;99.90;;;;;;4230408;28;20539;-86
2022/11/11 03:03:24;;;;;;;15.95;6.60;;;11.90;99.90;;;;;;4220200;28;20044;-86
2022/11/11 03:05:26;;;;;;;11.48;6.15;;;11.90;99.90;;;;;;4228999;28;20503;-86
2022/11/11 03:07:27;;;;;;;15.35;6.47;;;11.90;99.90;;;;;;4230400;28;20484;-86
2022/11/11 03:09:27;;;;;;;11.68;6.82;;;11.80;99.90;;;;;;4213881;28;20044;-86
2022/11/11 03:11:28;;;;;;;17.33;7.03;;;11.80;99.90;;;;;;4232208;28;20051;-86
2022/11/11 03:13:29;;;;;;;14.18;6.85;;;11.80;99.90;;;;;;4224834;28;20135;-86
2022/11/11 03:15:29;;;;;;;25.75;8.05;;;11.70;99.90;;;;;;4244695;27;20051;-85
2022/11/11 03:17:39;;;;;;;17.23;7.68;;;11.80;99.90;;;;;;4250722;27;20098;-86
2022/11/11 03:19:41;;;;;;;18.13;7.32;;;11.70;99.90;;;;;;4250050;27;20035;-86
2022/11/11 03:21:41;;;;;;;18.83;9.25;;;11.70;99.90;;;;;;4251682;27;20047;-86
2022/11/11 03:23:42;;;;;;;19.75;7.75;;;11.70;99.90;;;;;;4250990;27;20494;-86
2022/11/11 03:25:46;;;;;;;17.40;7.32;;;11.60;99.90;;;;;;4250588;27;20051;-86
2022/11/11 03:27:47;;;;;;;20.05;8.57;;;11.60;99.90;;;;;;4250587;27;20043;-86
2022/11/11 03:29:47;;;;;;;18.25;7.85;;;11.60;99.90;;;;;;4250443;27;20107;-86
2022/11/11 03:31:49;;;;;;;20.55;9.73;;;11.70;99.90;;;;;;4246837;27;20054;-86
2022/11/11 03:33:50;;;;;;;18.02;8.38;;;11.60;99.90;;;;;;4248527;27;20058;-85
2022/11/11 03:35:50;;;;;;;22.30;9.70;;;11.60;99.90;;;;;;4250189;27;20043;-86
2022/11/11 03:40:12;;;;;;;17.52;8.25;;;11.50;99.90;;;;;;4229340;28;20048;-86
2022/11/11 03:42:12;;;;;;;23.15;8.50;;;11.50;99.90;;;;;;4230120;28;20043;-86
2022/11/11 03:44:13;;;;;;;22.40;9.30;;;11.50;99.90;;;;;;4248069;27;20551;-85
2022/11/11 03:46:14;;;;;;;20.75;8.98;;;11.50;99.90;;;;;;4229395;28;20052;-86
2022/11/11 03:48:15;;;;;;;19.33;10.02;;;11.50;99.90;;;;;;4248012;27;20039;-86
2022/11/11 03:50:16;;;;;;;18.38;9.80;;;11.50;99.90;;;;;;4211615;28;20413;-86
2022/11/11 03:52:17;;;;;;;18.13;10.13;;;11.50;99.90;;;;;;4247491;27;20122;-86
2022/11/11 03:54:18;;;;;;;26.60;9.90;;;11.40;99.90;;;;;;4247863;27;20043;-86
2022/11/11 03:56:19;;;;;;;21.67;9.63;;;11.40;99.90;;;;;;4248335;28;20552;-86
2022/11/11 03:58:19;;;;;;;19.27;9.77;;;11.40;99.90;;;;;;4230178;28;20117;-87
2022/11/11 04:00:23;;;;;;;18.58;9.73;;;11.40;99.90;;;;;;4228557;28;20050;-87
2022/11/11 04:11:59;;;;;;;20.20;9.88;;;11.30;99.90;;;;;;4179040;28;19931;-87
2022/11/11 04:16:23;;;;;;;24.63;10.15;;;11.30;99.90;;;;;;4169607;28;20085;-87
2022/11/11 04:21:42;;;;;;;23.83;9.90;;;11.30;99.90;;;;;;4229793;28;20051;-86
2022/11/11 04:23:03;;;;;;;22.77;10.02;;;11.30;99.90;;;;;;4243291;28;20047;-86
2022/11/11 04:27:23;;;;;;;18.05;9.52;;;11.30;99.90;;;;;;4247548;28;20051;-86
2022/11/11 04:29:27;;;;;;;24.25;10.27;;;11.30;99.90;;;;;;4229931;28;20051;-86
2022/11/11 04:31:28;;;;;;;23.95;9.88;;;11.30;99.90;;;;;;4220022;28;20044;-86
2022/11/11 04:33:29;;;;;;;23.17;10.85;;;11.30;99.90;;;;;;4229361;28;20047;-86
2022/11/11 04:35:30;;;;;;;24.35;10.55;;;11.30;99.90;;;;;;4229445;28;20111;-86
2022/11/11 04:37:33;;;;;;;23.08;10.18;;;11.30;99.90;;;;;;4228736;28;20046;-86
2022/11/11 04:41:53;;;;;;;18.90;10.40;;;11.30;99.90;;;;;;4221410;28;20048;-86
2022/11/11 04:46:12;;;;;;;;;;;11.30;99.90;;;;;;4247950;28;20059;-86
2022/11/11 04:48:15;;;;;;;20.55;10.15;;;11.30;99.90;;;;;;4247744;28;20444;-85
2022/11/11 04:50:16;;;;;;;21.92;11.10;;;11.30;99.90;;;;;;4228772;28;20047;-86
2022/11/11 04:52:26;;;;;;;25.88;10.70;;;11.30;99.90;;;;;;4247482;28;20076;-86
2022/11/11 04:54:26;;;;;;;20.42;11.38;;;11.30;99.90;;;;;;4229147;28;20048;-86
2022/11/11 04:56:46;;;;;;;25.77;10.27;;;11.30;99.90;;;;;;4228649;28;20452;-85
2022/11/11 04:59:14;;;;;;;26.65;9.95;;;11.30;99.90;;;;;;4215341;28;20055;-86
2022/11/11 05:01:10;;;;;;;23.73;10.85;;;11.30;99.90;;;;;;4220751;28;20063;-86
2022/11/11 05:03:15;;;;;;;20.45;10.82;;;11.30;99.90;;;;;;4231250;28;20047;-86
2022/11/11 05:05:16;;;;;;;21.83;10.38;;;11.20;99.90;;;;;;4232127;28;20094;-86
2022/11/11 05:09:36;;;;;;;20.83;10.30;;;11.20;99.90;;;;;;4249713;27;20043;-86
2022/11/11 05:11:37;;;;;;;21.98;11.32;;;11.20;99.90;;;;;;4250293;27;20035;-86
2022/11/11 05:22:56;;;;;;;28.92;11.77;;;11.20;99.90;;;;;;4231422;28;20059;-86
2022/11/11 05:27:16;;;;;;;23.08;11.80;;;11.10;99.90;;;;;;4249602;27;20415;-86
2022/11/11 05:29:17;;;;;;;22.48;11.65;;;11.10;99.90;;;;;;4249263;27;20043;-86
2022/11/11 05:31:17;;;;;;;26.60;12.23;;;11.10;99.90;;;;;;4249591;27;20418;-86
2022/11/11 05:33:18;;;;;;;26.63;12.98;;;11.10;99.90;;;;;;4229277;28;20039;-86
2022/11/11 05:35:19;;;;;;;24.80;13.20;;;11.10;99.90;;;;;;4228992;28;20464;-86
2022/11/11 05:37:20;;;;;;;32.40;13.18;;;11.10;99.90;;;;;;4221198;28;20101;-86
2022/11/11 05:39:20;;;;;;;28.95;12.25;;;11.10;99.90;;;;;;4231067;28;20555;-86
2022/11/11 05:41:21;;;;;;;25.25;12.27;;;11.10;99.90;;;;;;4232126;28;20047;-84
2022/11/11 05:43:23;;;;;;;21.70;10.80;;;11.10;99.90;;;;;;4216978;28;20078;-87
2022/11/11 05:45:23;;;;;;;30.33;12.65;;;11.10;99.90;;;;;;4231496;28;20548;-87
2022/11/11 05:47:25;;;;;;;22.45;11.15;;;11.10;99.90;;;;;;4249364;27;20039;-87
2022/11/11 05:49:26;;;;;;;26.50;12.65;;;11.10;99.90;;;;;;4249647;27;20051;-87
2022/11/11 05:51:28;;;;;;;28.08;12.38;;;11.10;99.90;;;;;;4224443;28;20051;-85
2022/11/11 05:53:28;;;;;;;26.70;11.95;;;11.10;99.90;;;;;;4242407;27;20039;-86
2022/11/11 05:55:29;;;;;;;27.02;12.45;;;11.10;99.90;;;;;;4222005;28;20108;-86
2022/11/11 05:57:30;;;;;;;23.83;11.43;;;11.10;99.90;;;;;;4243310;27;20487;-86
2022/11/11 05:59:32;;;;;;;26.48;11.65;;;11.00;99.90;;;;;;4242157;27;20035;-86
2022/11/11 06:01:34;;;;;;;27.90;13.05;;;11.00;99.90;;;;;;4207379;28;20140;-87
2022/11/11 06:03:34;;;;;;;22.35;10.77;;;11.00;99.90;;;;;;4231766;28;20070;-86
2022/11/11 06:05:36;;;;;;;23.85;11.75;;;11.00;99.90;;;;;;4233318;28;20479;-86
2022/11/11 06:07:39;;;;;;;25.05;10.88;;;10.90;99.90;;;;;;4223005;28;20127;-86
2022/11/11 06:09:39;;;;;;;24.83;12.10;;;10.90;99.90;;;;;;4248324;27;20045;-86
2022/11/11 06:11:40;;;;;;;32.80;11.82;;;10.90;99.90;;;;;;4214277;28;20492;-86
2022/11/11 06:13:41;;;;;;;28.90;10.82;;;10.80;99.90;;;;;;4231108;28;20056;-86
2022/11/11 06:15:42;;;;;;;25.15;11.57;;;10.80;99.90;;;;;;4221522;28;20052;-87
2022/11/11 06:17:43;;;;;;;22.75;11.20;;;10.80;99.90;;;;;;4244808;27;20031;-87
2022/11/11 06:19:44;;;;;;;24.73;11.18;;;10.80;99.90;;;;;;4231302;28;20086;-87
2022/11/11 06:21:57;;;;;;;21.55;11.18;;;10.80;99.90;;;;;;4249321;27;20474;-87
2022/11/11 06:23:58;;;;;;;27.00;11.23;;;10.80;99.90;;;;;;4248581;27;20539;-86
2022/11/11 06:26:14;;;;;;;25.33;11.48;;;10.80;99.90;;;;;;4213939;28;20051;-86
2022/11/11 06:28:17;;;;;;;23.45;11.60;;;10.90;99.90;;;;;;4248949;27;20064;-86
2022/11/11 06:30:17;;;;;;;26.08;11.63;;;10.90;99.90;;;;;;4231400;28;20059;-86
2022/11/11 06:32:18;;;;;;;19.10;11.13;;;10.90;99.90;;;;;;4214060;28;20048;-87
2022/11/11 06:34:19;;;;;;;20.98;10.68;;;11.00;99.90;;;;;;4213632;28;20569;-86
2022/11/11 06:36:21;;;;;;;25.55;10.63;;;11.00;99.90;;;;;;4248946;27;20043;-86
2022/11/11 06:38:21;;;;;;;21.20;10.88;;;11.10;99.90;;;;;;4248600;27;20043;-87
2022/11/11 06:40:23;;;;;;;28.52;10.57;;;11.10;99.90;;;;;;4230347;28;20070;-86
2022/11/11 06:42:24;;;;;;;24.77;9.50;;;11.20;99.90;;;;;;4234836;27;20450;-86
2022/11/11 06:44:24;;;;;;;25.20;10.68;;;11.20;99.90;;;;;;4231292;28;20035;-86
2022/11/11 06:46:26;;;;;;;25.70;11.27;;;11.20;99.90;;;;;;4219958;28;20451;-86
2022/11/11 06:48:27;;;;;;;28.90;11.13;;;11.30;99.90;;;;;;4248125;27;20035;-86
2022/11/11 06:50:28;;;;;;;22.05;10.30;;;11.30;99.90;;;;;;4248154;27;20055;-88
2022/11/11 06:52:29;;;;;;;26.02;10.90;;;11.30;99.90;;;;;;4249416;27;20055;-87
2022/11/11 06:54:29;;;;;;;25.65;11.18;;;11.30;99.90;;;;;;4230747;28;20460;-86
2022/11/11 06:56:30;;;;;;;23.42;11.30;;;11.30;99.90;;;;;;4230146;28;20047;-87
2022/11/11 06:58:31;;;;;;;31.80;11.48;;;11.30;99.90;;;;;;4228735;28;20591;-86
2022/11/11 07:00:34;;;;;;;31.48;12.95;;;11.30;99.90;;;;;;4235314;27;20492;-88
2022/11/11 07:02:35;;;;;;;25.92;11.27;;;11.30;99.90;;;;;;4236464;27;20043;-86
2022/11/11 07:04:37;;;;;;;20.85;10.88;;;11.30;99.90;;;;;;4247731;27;20075;-86
2022/11/11 07:06:38;;;;;;;23.77;11.07;;;11.30;99.90;;;;;;4230074;28;20039;-86
2022/11/11 07:08:43;;;;;;;25.80;12.27;;;11.30;99.90;;;;;;4229714;28;20416;-86
2022/11/11 07:10:47;;;;;;;26.50;11.02;;;12.40;99.90;;;;;;4247913;27;20476;-85
2022/11/11 07:12:48;;;;;;;21.65;11.05;;;11.30;99.90;;;;;;4247693;27;20051;-86
2022/11/11 07:14:49;;;;;;;25.42;11.27;;;11.50;99.90;;;;;;4213423;28;20075;-86
2022/11/11 07:16:49;;;;;;;23.20;10.82;;;11.30;99.90;;;;;;4228295;28;20434;-84
2022/11/11 07:18:50;;;;;;;29.08;11.95;;;11.40;99.90;;;;;;4208054;28;20528;-84
2022/11/11 07:20:52;;;;;;;27.52;11.60;;;11.30;99.90;;;;;;4237211;27;20040;-86
2022/11/11 07:22:54;;;;;;;32.42;11.95;;;11.40;99.90;;;;;;4209033;28;20087;-86
2022/11/11 07:24:57;;;;;;;32.63;12.27;;;11.40;99.90;;;;;;4227758;28;20572;-86
2022/11/11 07:26:59;;;;;;;33.85;11.60;;;11.40;99.90;;;;;;4231615;28;20043;-85
2022/11/11 07:29:00;;;;;;;22.27;11.88;;;11.40;99.90;;;;;;4215061;28;20051;-86
2022/11/11 07:31:01;;;;;;;24.55;11.80;;;11.30;99.90;;;;;;4252103;27;20177;-86
2022/11/11 07:33:02;;;;;;;23.80;11.75;;;11.30;99.90;;;;;;4257845;27;20062;-86
2022/11/11 07:35:03;;;;;;;26.67;12.60;;;11.40;99.90;;;;;;4266776;27;20059;-87
2022/11/11 07:37:04;;;;;;;28.58;12.32;;;11.40;99.90;;;;;;4266814;27;20042;-87
2022/11/11 07:39:05;;;;;;;26.58;11.02;;;11.40;99.90;;;;;;4249295;28;20051;-85
2022/11/11 07:41:05;;;;;;;30.45;12.23;;;11.60;99.90;;;;;;4247090;28;20047;-86
2022/11/11 07:43:06;;;;;;;25.90;12.60;;;11.40;99.90;;;;;;4258261;27;20060;-87
2022/11/11 07:45:11;;;;;;;24.65;12.35;;;11.40;99.90;;;;;;4242965;28;20100;-86
2022/11/11 07:47:11;;;;;;;29.17;12.55;;;11.30;99.90;;;;;;4248650;27;20380;-86
2022/11/11 07:49:12;;;;;;;31.77;12.70;;;11.40;99.90;;;;;;4228523;28;20114;-87
2022/11/11 07:51:13;;;;;;;27.58;12.70;;;12.00;99.90;;;;;;4222859;28;20125;-87
2022/11/11 07:53:14;;;;;;;26.48;12.10;;;11.30;99.90;;;;;;4246380;27;20422;-86
2022/11/11 07:55:15;;;;;;;28.23;11.27;;;11.30;99.90;;;;;;4239491;28;20096;-86
2022/11/11 07:57:18;;;;;;;24.85;12.13;;;12.40;99.90;;;;;;4250120;27;20050;-87
2022/11/11 07:59:18;;;;;;;25.42;11.82;;;11.40;99.90;;;;;;4249503;28;20051;-86
2022/11/11 08:01:20;;;;;;;32.28;11.70;;;11.30;99.90;;;;;;4230855;28;20157;-87
2022/11/11 08:03:21;;;;;;;23.65;11.27;;;11.30;99.90;;;;;;4213835;28;20052;-85
2022/11/11 08:05:23;;;;;;;23.25;10.55;;;11.30;99.90;;;;;;4247001;28;20069;-87
2022/11/11 08:07:23;;;;;;;26.77;12.23;;;11.50;99.90;;;;;;4229616;28;20112;-87
2022/11/11 08:09:24;;;;;;;29.40;12.77;;;11.40;99.90;;;;;;4245280;28;20563;-87
2022/11/11 08:13:44;;;;;;;22.77;10.05;;;11.50;99.90;;;;;;4246079;28;20062;-87
2022/11/11 08:15:45;;;;;;;25.75;10.90;;;11.40;99.90;;;;;;4224587;28;20035;-87
2022/11/11 08:17:47;;;;;;;23.00;10.77;;;11.40;99.90;;;;;;4247432;28;20043;-87
2022/11/11 08:19:48;;;;;;;23.45;10.95;;;11.40;99.90;;;;;;4228640;28;20135;-85
2022/11/11 08:21:50;;;;;;;23.23;11.00;;;11.40;99.90;;;;;;4229017;28;20073;-84
2022/11/11 08:23:51;;;;;;;27.35;12.90;;;11.40;99.90;;;;;;4229094;28;20412;-86
2022/11/11 08:25:52;;;;;;;25.92;11.57;;;11.40;99.90;;;;;;4228920;28;20040;-86
2022/11/11 08:28:00;;;;;;;26.13;11.77;;;11.40;99.90;;;;;;4228321;28;20060;-86
2022/11/11 08:30:01;;;;;;;24.98;10.88;;;11.40;99.90;;;;;;4229434;28;20118;-86
2022/11/11 08:32:02;;;;;;;20.95;10.57;;;11.40;99.90;;;;;;4247727;27;20050;-86
2022/11/11 08:34:03;;;;;;;24.30;10.00;;;11.40;99.90;;;;;;4233233;28;20048;-85
2022/11/11 08:36:06;;;;;;;21.45;10.40;;;11.40;99.90;;;;;;4217220;28;20051;-86
2022/11/11 08:38:07;;;;;;;23.23;10.02;;;11.40;99.90;;;;;;4234714;28;20483;-86
2022/11/11 08:40:08;;;;;;;24.33;10.90;;;11.40;99.90;;;;;;4252422;27;20047;-87
2022/11/11 08:42:10;;;;;;;23.58;11.32;;;11.40;99.90;;;;;;4252795;27;20479;-86
2022/11/11 08:44:10;;;;;;;25.55;11.10;;;11.40;99.90;;;;;;4234147;28;20118;-86
2022/11/11 08:46:11;;;;;;;26.08;11.77;;;11.40;99.90;;;;;;4217851;28;20055;-86
2022/11/11 08:48:12;;;;;;;21.98;10.52;;;11.40;99.90;;;;;;4252962;27;20077;-86
2022/11/11 08:50:13;;;;;;;21.98;11.60;;;11.40;99.90;;;;;;4251591;27;20379;-86
2022/11/11 08:52:16;;;;;;;24.70;11.52;;;11.40;99.90;;;;;;4232766;28;20556;-86
2022/11/11 08:54:16;;;;;;;24.00;11.20;;;11.40;99.90;;;;;;4216263;28;20103;-86
2022/11/11 08:56:17;;;;;;;24.70;11.15;;;11.40;99.90;;;;;;4250708;27;20043;-86
2022/11/11 08:58:18;;;;;;;24.83;10.85;;;11.40;99.90;;;;;;4250599;27;20043;-87
2022/11/11 09:00:18;;;;;;;26.67;11.30;;;11.40;99.90;;;;;;4250562;27;20047;-86
2022/11/11 09:02:19;;;;;;;21.50;10.48;;;11.40;99.90;;;;;;4251087;27;20550;-87
2022/11/11 09:04:21;;;;;;;23.30;11.07;;;11.40;99.90;;;;;;4250116;27;20035;-87
2022/11/11 09:06:22;;;;;;;21.38;10.07;;;11.40;99.90;;;;;;4232754;28;20082;-86
2022/11/11 09:08:23;;;;;;;25.73;11.57;;;11.50;99.90;;;;;;4234222;28;20411;-86
2022/11/11 09:10:24;;;;;;;29.15;11.60;;;11.50;99.90;;;;;;4242875;28;20043;-86
2022/11/11 09:12:25;;;;;;;21.92;11.02;;;11.40;99.90;;;;;;4258398;27;20046;-86
2022/11/11 09:14:25;;;;;;;28.42;12.30;;;11.40;99.90;;;;;;4234427;28;20128;-85
2022/11/11 09:16:26;;;;;;;27.00;10.80;;;11.40;99.90;;;;;;4233929;28;20044;-86
2022/11/11 09:18:27;;;;;;;26.05;11.00;;;11.40;99.90;;;;;;4233436;28;20075;-86
2022/11/11 09:20:28;;;;;;;26.52;11.43;;;11.40;99.90;;;;;;4232555;28;20047;-85
2022/11/11 09:22:30;;;;;;;22.80;9.75;;;11.40;99.90;;;;;;4232759;28;20039;-86
2022/11/11 09:24:30;;;;;;;31.67;11.35;;;11.40;99.90;;;;;;4233143;28;20040;-86
2022/11/11 09:26:31;;;;;;;21.20;11.23;;;11.40;99.90;;;;;;4233402;28;20046;-86
2022/11/11 09:28:33;;;;;;;21.13;11.07;;;11.40;99.90;;;;;;4232842;28;20039;-86
2022/11/11 09:30:34;;;;;;;21.75;10.65;;;11.40;99.90;;;;;;4252081;27;20039;-86
2022/11/11 09:32:36;;;;;;;23.70;10.32;;;11.40;99.90;;;;;;4232669;28;20131;-86
2022/11/11 09:34:36;;;;;;;21.20;10.75;;;11.40;99.90;;;;;;4231902;28;20050;-85
2022/11/11 09:36:37;;;;;;;19.35;10.63;;;11.40;99.90;;;;;;4250248;27;20131;-86
2022/11/11 09:38:38;;;;;;;23.90;11.15;;;11.40;99.90;;;;;;4250614;27;20125;-86
2022/11/11 09:40:53;;;;;;;25.15;10.75;;;11.40;99.90;;;;;;4232489;28;20160;-87
2022/11/11 09:43:23;;;;;;;22.73;9.90;;;11.40;99.90;;;;;;4250461;27;20055;-87
2022/11/11 09:45:39;;;;;;;;;;;11.40;99.90;;;;;;4232817;28;20093;-85
2022/11/11 09:48:07;;;;;;;18.40;10.38;;;11.40;99.90;;;;;;4233581;28;19949;-85
2022/11/11 09:50:17;;;;;;;20.20;9.90;;;11.40;99.90;;;;;;4228052;28;20499;-85
2022/11/11 09:52:27;;;;;;;23.50;11.00;;;11.40;99.90;;;;;;4232174;28;20051;-85
2022/11/11 09:54:43;;;;;;;22.08;9.98;;;11.30;99.90;;;;;;4255396;27;20080;-85
2022/11/11 09:56:44;;;;;;;20.38;10.00;;;11.30;99.90;;;;;;4250986;27;20039;-85
2022/11/11 09:58:52;;;;;;;19.63;10.00;;;11.30;99.90;;;;;;4250922;27;20046;-86
2022/11/11 10:01:12;;;;;;;23.33;8.98;;;11.30;99.90;;;;;;4231106;28;20051;-85
2022/11/11 10:03:19;;;;;;;21.83;9.68;;;11.30;99.90;;;;;;4249988;27;20494;-86
2022/11/11 10:05:37;;;;;;;20.45;9.73;;;11.20;99.90;;;;;;4231950;28;20047;-85
2022/11/11 10:07:52;;;;;;;20.98;9.18;;;11.20;99.90;;;;;;4233031;28;20527;-86
2022/11/11 10:10:08;;;;;;;21.17;9.63;;;11.20;99.90;;;;;;4232508;28;20094;-86
2022/11/11 10:12:14;;;;;;;25.30;11.32;;;11.20;99.90;;;;;;4253079;27;20491;-85
2022/11/11 10:14:16;;;;;;;22.20;10.50;;;11.20;99.90;;;;;;4233715;28;20091;-86
2022/11/11 10:16:39;;;;;;;17.92;9.45;;;11.20;99.90;;;;;;4231705;28;20062;-85
2022/11/11 10:18:49;;;;;;;25.17;9.68;;;11.20;99.90;;;;;;4230498;28;20051;-86
2022/11/11 10:20:54;;;;;;;23.45;10.45;;;11.20;99.90;;;;;;4233253;28;20040;-86
2022/11/11 10:23:04;;;;;;;23.50;10.30;;;11.20;99.90;;;;;;4243716;27;20047;-86
2022/11/11 10:25:11;;;;;;;22.98;10.43;;;11.20;99.90;;;;;;4249199;27;20049;-86
2022/11/11 10:27:20;;;;;;;19.00;9.50;;;11.20;99.90;;;;;;4231499;28;20067;-86
2022/11/11 10:29:25;;;;;;;20.20;9.52;;;11.20;99.90;;;;;;4231081;28;20043;-86
2022/11/11 10:31:26;;;;;;;20.08;9.73;;;11.20;99.90;;;;;;4235983;28;20495;-86
2022/11/11 10:33:47;;;;;;;23.00;10.32;;;11.20;99.90;;;;;;4236442;28;20560;-85
2022/11/11 10:35:51;;;;;;;23.13;10.30;;;11.20;99.90;;;;;;4235361;28;20047;-85
2022/11/11 10:38:24;;;;;;;20.25;9.00;;;11.20;99.90;;;;;;4232591;28;20149;-86
2022/11/11 10:40:32;;;;;;;16.90;8.60;;;11.20;99.90;;;;;;4231763;28;20082;-86
2022/11/11 10:42:33;;;;;;;15.90;8.82;;;11.20;99.90;;;;;;4232789;28;20126;-85
2022/11/11 10:44:37;;;;;;;20.40;9.32;;;11.30;99.90;;;;;;4233426;28;20040;-85
2022/11/11 10:46:48;;;;;;;27.17;10.43;;;11.30;99.90;;;;;;4253190;27;20043;-85
2022/11/11 10:49:01;;;;;;;19.35;9.25;;;11.30;99.90;;;;;;4233212;28;20483;-85
2022/11/11 10:51:02;;;;;;;18.67;9.35;;;11.30;99.90;;;;;;4232817;28;20112;-86
2022/11/11 10:53:37;;;;;;;21.80;9.48;;;11.30;99.90;;;;;;4215335;28;20052;-86
2022/11/11 10:55:56;;;;;;;21.90;9.55;;;11.30;99.90;;;;;;4213600;28;20121;-86
2022/11/11 10:58:10;;;;;;;23.17;9.30;;;11.30;99.90;;;;;;4228624;28;20128;-86
2022/11/11 11:00:14;;;;;;;20.40;9.00;;;11.30;99.90;;;;;;4232348;28;20048;-86
2022/11/11 11:02:18;;;;;;;18.83;9.30;;;11.30;99.90;;;;;;4228074;28;20072;-85
2022/11/11 11:04:36;;;;;;;21.35;10.70;;;11.30;99.90;;;;;;4249419;27;20050;-85
2022/11/11 11:06:44;;;;;;;21.30;9.63;;;11.30;99.90;;;;;;4249103;27;20053;-85
2022/11/11 11:08:51;;;;;;;21.35;9.15;;;11.30;99.90;;;;;;4248953;27;20049;-85
2022/11/11 11:11:01;;;;;;;23.20;8.98;;;11.40;99.90;;;;;;4229669;28;20116;-86
2022/11/11 11:13:16;;;;;;;19.17;10.00;;;11.40;99.90;;;;;;4248607;27;20598;-87
2022/11/11 11:15:21;;;;;;;20.60;9.20;;;11.40;99.90;;;;;;4231019;28;20039;-85
2022/11/11 11:17:29;;;;;;;21.15;9.48;;;11.40;99.90;;;;;;4248646;27;20039;-86
2022/11/11 11:19:30;;;;;;;18.63;8.98;;;11.40;99.90;;;;;;4230234;28;20054;-86
2022/11/11 11:21:58;;;;;;;20.55;9.02;;;11.40;99.90;;;;;;4229976;28;20062;-85
2022/11/11 11:23:58;;;;;;;19.95;8.95;;;11.50;99.90;;;;;;4230183;28;20077;-86
2022/11/11 11:26:02;;;;;;;17.55;9.10;;;11.40;99.90;;;;;;4248698;27;20430;-87
2022/11/11 11:28:11;;;;;;;19.63;9.23;;;11.40;99.90;;;;;;4229932;28;20134;-86
2022/11/11 11:30:21;;;;;;;18.98;9.40;;;11.50;99.90;;;;;;4247478;27;20070;-86
2022/11/11 11:32:30;;;;;;;20.30;10.20;;;11.50;99.90;;;;;;4213323;28;20048;-86
2022/11/11 11:34:46;;;;;;;20.38;9.73;;;11.40;99.90;;;;;;4214419;28;20119;-86
2022/11/11 11:37:00;;;;;;;20.75;9.55;;;11.50;99.90;;;;;;4229439;28;20061;-86